Mount Saint Joseph, Ohio
Current Conditions -  °F | °C
As of 3:18 AM on Monday 24 Nov 2014 (Local Time) from KI69 Reporting Station
Moderate Rain Moderate Rain  
Wind Chill: 59°   Ceiling: 1500
Heat Index: 59°   Visibility: 7mi
Dew Point: 57°   Wind: 14mph
Humidity: 94%   Direction: 220°SW
Pressure: 29.36"   Gusts: 20mph
Location:  39.1°N, 84.65°W
Report Text: KI69 240818Z AUTO 22012G17KT 7SM RA BKN015 OVC019 15/14 A2936 RMK AO1
Loading
Personal Weather Stations






























Interactive Weather Map New forecast layout! Learn more

10-Day Weather Forecast

Advertisements
Track Severe Weather on mobile